sensor_id;sensor_type;location;lat;lon;timestamp;temperature;humidity
21672;DHT22;10997;52.242;8.168;2022-09-03T00:02:12;15.40;90.50
21672;DHT22;10997;52.242;8.168;2022-09-03T00:07:41;15.30;90.60
21672;DHT22;10997;52.242;8.168;2022-09-03T00:12:45;15.20;90.80
21672;DHT22;10997;52.242;8.168;2022-09-03T00:17:53;15.20;90.80
21672;DHT22;10997;52.242;8.168;2022-09-03T00:22:57;15.20;90.80
21672;DHT22;10997;52.242;8.168;2022-09-03T00:28:03;15.10;90.80
21672;DHT22;10997;52.242;8.168;2022-09-03T00:33:17;15.10;90.90
21672;DHT22;10997;52.242;8.168;2022-09-03T00:38:20;15.10;90.90
21672;DHT22;10997;52.242;8.168;2022-09-03T00:59:51;14.90;91.30
21672;DHT22;10997;52.242;8.168;2022-09-03T01:05:26;14.90;91.40
21672;DHT22;10997;52.242;8.168;2022-09-03T01:37:18;14.40;92.50
21672;DHT22;10997;52.242;8.168;2022-09-03T01:58:34;14.00;93.40
21672;DHT22;10997;52.242;8.168;2022-09-03T02:03:38;14.10;93.50
21672;DHT22;10997;52.242;8.168;2022-09-03T02:08:40;14.00;93.60
21672;DHT22;10997;52.242;8.168;2022-09-03T02:13:44;13.90;93.80
21672;DHT22;10997;52.242;8.168;2022-09-03T02:18:50;13.80;93.90
21672;DHT22;10997;52.242;8.168;2022-09-03T02:23:54;13.90;94.10
21672;DHT22;10997;52.242;8.168;2022-09-03T02:28:55;13.80;94.20
21672;DHT22;10997;52.242;8.168;2022-09-03T02:33:57;13.70;94.30
21672;DHT22;10997;52.242;8.168;2022-09-03T02:38:58;13.70;94.50
21672;DHT22;10997;52.242;8.168;2022-09-03T02:44:12;13.60;94.70
21672;DHT22;10997;52.242;8.168;2022-09-03T02:49:14;13.60;94.70
21672;DHT22;10997;52.242;8.168;2022-09-03T02:54:15;13.60;94.90
21672;DHT22;10997;52.242;8.168;2022-09-03T02:59:15;13.50;95.10
21672;DHT22;10997;52.242;8.168;2022-09-03T03:04:17;13.50;95.20
21672;DHT22;10997;52.242;8.168;2022-09-03T03:09:18;13.50;95.30
21672;DHT22;10997;52.242;8.168;2022-09-03T03:14:18;13.50;95.40
21672;DHT22;10997;52.242;8.168;2022-09-03T03:19:19;13.40;95.50
21672;DHT22;10997;52.242;8.168;2022-09-03T03:24:20;13.40;95.60
21672;DHT22;10997;52.242;8.168;2022-09-03T03:29:20;13.40;95.80
21672;DHT22;10997;52.242;8.168;2022-09-03T03:34:21;13.40;95.90
21672;DHT22;10997;52.242;8.168;2022-09-03T03:39:22;13.30;96.00
21672;DHT22;10997;52.242;8.168;2022-09-03T03:44:23;13.30;96.20
21672;DHT22;10997;52.242;8.168;2022-09-03T03:49:23;13.20;96.30
21672;DHT22;10997;52.242;8.168;2022-09-03T03:54:24;13.10;96.50
21672;DHT22;10997;52.242;8.168;2022-09-03T03:59:25;13.00;96.70
21672;DHT22;10997;52.242;8.168;2022-09-03T04:04:25;13.00;97.00
21672;DHT22;10997;52.242;8.168;2022-09-03T04:09:26;12.90;97.30
21672;DHT22;10997;52.242;8.168;2022-09-03T04:14:27;12.90;97.50
21672;DHT22;10997;52.242;8.168;2022-09-03T04:19:28;12.80;97.70
21672;DHT22;10997;52.242;8.168;2022-09-03T04:24:31;12.90;97.90
21672;DHT22;10997;52.242;8.168;2022-09-03T04:29:32;12.80;98.10
21672;DHT22;10997;52.242;8.168;2022-09-03T04:34:33;12.80;98.50
21672;DHT22;10997;52.242;8.168;2022-09-03T04:39:33;12.80;98.50
21672;DHT22;10997;52.242;8.168;2022-09-03T04:44:34;12.70;98.70
21672;DHT22;10997;52.242;8.168;2022-09-03T04:49:39;12.70;99.00
21672;DHT22;10997;52.242;8.168;2022-09-03T04:54:39;12.70;99.10
21672;DHT22;10997;52.242;8.168;2022-09-03T04:59:40;12.70;99.30
21672;DHT22;10997;52.242;8.168;2022-09-03T05:04:42;12.70;99.50
21672;DHT22;10997;52.242;8.168;2022-09-03T05:09:42;12.70;99.70
21672;DHT22;10997;52.242;8.168;2022-09-03T05:14:43;12.80;99.80
21672;DHT22;10997;52.242;8.168;2022-09-03T05:19:44;12.90;99.90
21672;DHT22;10997;52.242;8.168;2022-09-03T05:24:44;12.90;99.90
21672;DHT22;10997;52.242;8.168;2022-09-03T05:29:45;13.00;99.90
21672;DHT22;10997;52.242;8.168;2022-09-03T05:34:46;13.00;99.90
21672;DHT22;10997;52.242;8.168;2022-09-03T05:39:46;13.10;99.90
21672;DHT22;10997;52.242;8.168;2022-09-03T05:44:47;13.20;99.90
21672;DHT22;10997;52.242;8.168;2022-09-03T05:49:48;13.30;99.90
21672;DHT22;10997;52.242;8.168;2022-09-03T05:54:49;13.40;99.90
21672;DHT22;10997;52.242;8.168;2022-09-03T05:59:50;13.50;99.90
21672;DHT22;10997;52.242;8.168;2022-09-03T06:04:52;13.70;99.90
21672;DHT22;10997;52.242;8.168;2022-09-03T06:09:52;13.90;99.90
21672;DHT22;10997;52.242;8.168;2022-09-03T06:14:54;14.10;99.90
21672;DHT22;10997;52.242;8.168;2022-09-03T06:19:54;14.20;99.90
21672;DHT22;10997;52.242;8.168;2022-09-03T06:24:55;14.50;99.90
21672;DHT22;10997;52.242;8.168;2022-09-03T06:29:56;14.60;99.90
21672;DHT22;10997;52.242;8.168;2022-09-03T06:34:59;14.80;99.90
21672;DHT22;10997;52.242;8.168;2022-09-03T06:40:01;15.00;99.90
21672;DHT22;10997;52.242;8.168;2022-09-03T06:45:01;15.30;99.90
21672;DHT22;10997;52.242;8.168;2022-09-03T06:50:02;15.50;99.80
21672;DHT22;10997;52.242;8.168;2022-09-03T06:55:06;15.70;99.40
21672;DHT22;10997;52.242;8.168;2022-09-03T07:00:07;15.90;99.30
21672;DHT22;10997;52.242;8.168;2022-09-03T07:05:08;16.20;98.90
21672;DHT22;10997;52.242;8.168;2022-09-03T07:10:09;16.40;98.40
21672;DHT22;10997;52.242;8.168;2022-09-03T07:15:11;16.70;98.10
21672;DHT22;10997;52.242;8.168;2022-09-03T07:20:12;16.90;97.80
21672;DHT22;10997;52.242;8.168;2022-09-03T07:25:12;17.20;97.50
21672;DHT22;10997;52.242;8.168;2022-09-03T07:30:13;17.30;97.20
21672;DHT22;10997;52.242;8.168;2022-09-03T07:35:14;17.40;96.70
21672;DHT22;10997;52.242;8.168;2022-09-03T07:40:14;17.60;96.20
21672;DHT22;10997;52.242;8.168;2022-09-03T07:45:19;17.90;96.10
21672;DHT22;10997;52.242;8.168;2022-09-03T07:50:20;18.00;95.70
21672;DHT22;10997;52.242;8.168;2022-09-03T07:55:21;18.30;95.30
21672;DHT22;10997;52.242;8.168;2022-09-03T08:00:24;18.50;94.50
21672;DHT22;10997;52.242;8.168;2022-09-03T08:05:25;18.60;94.60
21672;DHT22;10997;52.242;8.168;2022-09-03T08:10:26;18.70;94.30
21672;DHT22;10997;52.242;8.168;2022-09-03T08:15:30;18.90;93.70
21672;DHT22;10997;52.242;8.168;2022-09-03T08:20:31;19.10;93.40
21672;DHT22;10997;52.242;8.168;2022-09-03T08:25:32;19.30;93.10
21672;DHT22;10997;52.242;8.168;2022-09-03T08:30:33;19.50;93.10
21672;DHT22;10997;52.242;8.168;2022-09-03T08:35:34;19.70;92.90
21672;DHT22;10997;52.242;8.168;2022-09-03T08:40:38;19.90;92.70
21672;DHT22;10997;52.242;8.168;2022-09-03T08:45:39;20.20;92.40
21672;DHT22;10997;52.242;8.168;2022-09-03T08:50:44;20.40;92.10
21672;DHT22;10997;52.242;8.168;2022-09-03T08:55:57;20.60;91.50
21672;DHT22;10997;52.242;8.168;2022-09-03T09:16:56;21.40;90.20
21672;DHT22;10997;52.242;8.168;2022-09-03T09:22:06;21.60;90.00
21672;DHT22;10997;52.242;8.168;2022-09-03T09:27:08;21.90;90.10
21672;DHT22;10997;52.242;8.168;2022-09-03T09:32:10;22.10;88.70
21672;DHT22;10997;52.242;8.168;2022-09-03T09:37:18;22.30;87.30
21672;DHT22;10997;52.242;8.168;2022-09-03T09:42:21;22.40;86.60
21672;DHT22;10997;52.242;8.168;2022-09-03T09:47:28;22.50;85.60
21672;DHT22;10997;52.242;8.168;2022-09-03T09:52:30;22.60;85.00
21672;DHT22;10997;52.242;8.168;2022-09-03T09:57:31;23.00;84.50
21672;DHT22;10997;52.242;8.168;2022-09-03T10:02:34;23.20;82.80
21672;DHT22;10997;52.242;8.168;2022-09-03T10:07:36;23.30;81.30
21672;DHT22;10997;52.242;8.168;2022-09-03T10:12:41;23.40;80.80
21672;DHT22;10997;52.242;8.168;2022-09-03T10:18:06;23.60;80.10
21672;DHT22;10997;52.242;8.168;2022-09-03T10:23:23;23.80;80.10
21672;DHT22;10997;52.242;8.168;2022-09-03T10:28:27;24.00;79.10
21672;DHT22;10997;52.242;8.168;2022-09-03T10:33:53;24.30;79.00
21672;DHT22;10997;52.242;8.168;2022-09-03T10:39:24;24.60;78.00
21672;DHT22;10997;52.242;8.168;2022-09-03T10:44:59;24.60;76.50
21672;DHT22;10997;52.242;8.168;2022-09-03T10:55:19;25.10;76.10
21672;DHT22;10997;52.242;8.168;2022-09-03T11:00:22;25.10;75.10
21672;DHT22;10997;52.242;8.168;2022-09-03T11:05:42;25.10;74.40
21672;DHT22;10997;52.242;8.168;2022-09-03T11:11:06;25.30;74.50
21672;DHT22;10997;52.242;8.168;2022-09-03T11:16:17;25.30;74.90
21672;DHT22;10997;52.242;8.168;2022-09-03T11:21:25;25.40;74.20
21672;DHT22;10997;52.242;8.168;2022-09-03T11:26:29;25.30;73.90
21672;DHT22;10997;52.242;8.168;2022-09-03T11:37:25;25.70;71.90
21672;DHT22;10997;52.242;8.168;2022-09-03T11:42:42;25.90;71.70
21672;DHT22;10997;52.242;8.168;2022-09-03T11:47:47;26.00;71.40
21672;DHT22;10997;52.242;8.168;2022-09-03T11:53:10;26.30;71.90
21672;DHT22;10997;52.242;8.168;2022-09-03T11:58:20;26.50;70.70
21672;DHT22;10997;52.242;8.168;2022-09-03T12:03:45;26.70;70.90
21672;DHT22;10997;52.242;8.168;2022-09-03T12:14:19;26.40;69.20
21672;DHT22;10997;52.242;8.168;2022-09-03T12:24:32;27.20;70.00
21672;DHT22;10997;52.242;8.168;2022-09-03T12:29:37;27.20;67.50
21672;DHT22;10997;52.242;8.168;2022-09-03T12:34:41;27.20;68.30
21672;DHT22;10997;52.242;8.168;2022-09-03T12:39:50;27.30;66.20
21672;DHT22;10997;52.242;8.168;2022-09-03T12:44:52;27.40;66.30
21672;DHT22;10997;52.242;8.168;2022-09-03T12:49:56;27.60;65.70
21672;DHT22;10997;52.242;8.168;2022-09-03T13:00:13;27.90;64.50
21672;DHT22;10997;52.242;8.168;2022-09-03T13:05:20;28.10;63.90
21672;DHT22;10997;52.242;8.168;2022-09-03T13:10:40;28.20;64.40
21672;DHT22;10997;52.242;8.168;2022-09-03T13:16:02;28.30;64.90
21672;DHT22;10997;52.242;8.168;2022-09-03T13:31:49;28.10;62.50
21672;DHT22;10997;52.242;8.168;2022-09-03T13:36:57;28.10;61.80
21672;DHT22;10997;52.242;8.168;2022-09-03T13:42:22;28.30;63.00
21672;DHT22;10997;52.242;8.168;2022-09-03T13:47:43;28.30;60.80
21672;DHT22;10997;52.242;8.168;2022-09-03T13:58:37;27.40;63.40
21672;DHT22;10997;52.242;8.168;2022-09-03T14:03:49;27.20;63.40
21672;DHT22;10997;52.242;8.168;2022-09-03T14:19:55;26.80;65.10
21672;DHT22;10997;52.242;8.168;2022-09-03T14:25:02;27.60;63.80
21672;DHT22;10997;52.242;8.168;2022-09-03T14:35:22;28.10;62.60
21672;DHT22;10997;52.242;8.168;2022-09-03T15:09:45;28.00;61.60
21672;DHT22;10997;52.242;8.168;2022-09-03T15:14:55;27.60;61.30
21672;DHT22;10997;52.242;8.168;2022-09-03T15:20:02;27.40;61.50
21672;DHT22;10997;52.242;8.168;2022-09-03T15:31:02;26.90;61.80
21672;DHT22;10997;52.242;8.168;2022-09-03T15:36:21;26.80;62.50
21672;DHT22;10997;52.242;8.168;2022-09-03T15:57:46;26.50;62.20
21672;DHT22;10997;52.242;8.168;2022-09-03T16:03:05;26.50;63.10
21672;DHT22;10997;52.242;8.168;2022-09-03T16:08:30;26.70;62.20
21672;DHT22;10997;52.242;8.168;2022-09-03T16:13:58;26.80;63.50
21672;DHT22;10997;52.242;8.168;2022-09-03T16:24:21;26.70;62.40
21672;DHT22;10997;52.242;8.168;2022-09-03T16:29:33;26.50;61.70
21672;DHT22;10997;52.242;8.168;2022-09-03T16:34:49;26.20;63.90
21672;DHT22;10997;52.242;8.168;2022-09-03T16:39:55;26.20;63.60
21672;DHT22;10997;52.242;8.168;2022-09-03T16:45:33;26.30;63.40
21672;DHT22;10997;52.242;8.168;2022-09-03T16:56:14;26.20;63.30
21672;DHT22;10997;52.242;8.168;2022-09-03T17:07:41;26.10;63.80
21672;DHT22;10997;52.242;8.168;2022-09-03T17:24:27;25.10;64.50
21672;DHT22;10997;52.242;8.168;2022-09-03T17:29:51;24.80;65.10
21672;DHT22;10997;52.242;8.168;2022-09-03T17:35:30;24.60;65.60
21672;DHT22;10997;52.242;8.168;2022-09-03T17:41:14;24.40;65.50
21672;DHT22;10997;52.242;8.168;2022-09-03T17:52:34;24.10;67.20
21672;DHT22;10997;52.242;8.168;2022-09-03T17:57:47;23.90;67.70
21672;DHT22;10997;52.242;8.168;2022-09-03T18:03:12;23.80;67.80
21672;DHT22;10997;52.242;8.168;2022-09-03T18:24:58;22.90;69.00
21672;DHT22;10997;52.242;8.168;2022-09-03T18:30:18;22.60;69.30
21672;DHT22;10997;52.242;8.168;2022-09-03T18:35:44;22.40;69.60
21672;DHT22;10997;52.242;8.168;2022-09-03T18:41:15;22.20;69.90
21672;DHT22;10997;52.242;8.168;2022-09-03T18:47:01;22.00;70.80
21672;DHT22;10997;52.242;8.168;2022-09-03T18:58:19;21.50;71.40
21672;DHT22;10997;52.242;8.168;2022-09-03T19:03:56;21.30;71.80
21672;DHT22;10997;52.242;8.168;2022-09-03T19:15:25;21.00;72.70
21672;DHT22;10997;52.242;8.168;2022-09-03T19:26:56;20.60;73.30
21672;DHT22;10997;52.242;8.168;2022-09-03T19:32:20;20.40;73.10
21672;DHT22;10997;52.242;8.168;2022-09-03T19:43:42;20.00;76.20
21672;DHT22;10997;52.242;8.168;2022-09-03T19:54:55;19.50;78.90
21672;DHT22;10997;52.242;8.168;2022-09-03T20:00:16;19.50;77.50
21672;DHT22;10997;52.242;8.168;2022-09-03T20:05:36;19.50;76.80
21672;DHT22;10997;52.242;8.168;2022-09-03T20:10:56;19.50;76.00
21672;DHT22;10997;52.242;8.168;2022-09-03T20:16:15;19.50;75.80
21672;DHT22;10997;52.242;8.168;2022-09-03T20:33:10;19.20;76.60
21672;DHT22;10997;52.242;8.168;2022-09-03T20:38:04;19.20;76.10
21672;DHT22;10997;52.242;8.168;2022-09-03T20:54:13;19.00;75.50
21672;DHT22;10997;52.242;8.168;2022-09-03T20:59:47;18.90;75.50
21672;DHT22;10997;52.242;8.168;2022-09-03T21:05:08;18.90;75.70
21672;DHT22;10997;52.242;8.168;2022-09-03T21:10:33;18.90;75.70
21672;DHT22;10997;52.242;8.168;2022-09-03T21:21:18;18.70;75.90
21672;DHT22;10997;52.242;8.168;2022-09-03T21:26:30;18.60;76.30
21672;DHT22;10997;52.242;8.168;2022-09-03T21:36:48;18.20;78.30
21672;DHT22;10997;52.242;8.168;2022-09-03T21:47:26;17.80;80.30
21672;DHT22;10997;52.242;8.168;2022-09-03T22:03:12;17.30;84.00
21672;DHT22;10997;52.242;8.168;2022-09-03T22:08:29;17.10;84.90
21672;DHT22;10997;52.242;8.168;2022-09-03T22:18:58;17.00;85.30
21672;DHT22;10997;52.242;8.168;2022-09-03T22:24:17;17.00;85.30
21672;DHT22;10997;52.242;8.168;2022-09-03T22:46:15;16.40;90.00
21672;DHT22;10997;52.242;8.168;2022-09-03T22:51:17;16.30;90.70
21672;DHT22;10997;52.242;8.168;2022-09-03T22:56:19;16.10;91.30
21672;DHT22;10997;52.242;8.168;2022-09-03T23:01:37;16.00;91.80
21672;DHT22;10997;52.242;8.168;2022-09-03T23:06:43;15.90;92.20
21672;DHT22;10997;52.242;8.168;2022-09-03T23:11:56;15.80;92.70
21672;DHT22;10997;52.242;8.168;2022-09-03T23:17:08;15.70;93.10
21672;DHT22;10997;52.242;8.168;2022-09-03T23:22:11;15.60;93.50
21672;DHT22;10997;52.242;8.168;2022-09-03T23:27:21;15.50;93.80
21672;DHT22;10997;52.242;8.168;2022-09-03T23:32:22;15.40;94.20
21672;DHT22;10997;52.242;8.168;2022-09-03T23:37:34;15.30;94.80
21672;DHT22;10997;52.242;8.168;2022-09-03T23:58:34;15.00;96.90
